Time;durP1;ratioP1;P1;durP2;ratioP2;P2;SDS_P1;SDS_P2;PMS_P1;PMS_P2;Temp;Humidity;BMP_temperature;BMP_pressure;BME280_temperature;BME280_humidity;BME280_pressure;Samples;Min_cycle;Max_cycle;Signal;HPM_P1;HPM_P2
2022/03/19 00:00:14;;;;;;;29.45;9.63;;;;;;;9.13;61.72;104635.06;5209467;27;20493;-49
2022/03/19 00:02:47;;;;;;;33.92;9.65;;;;;;;9.11;61.46;104618.44;5209890;27;20423;-50
2022/03/19 00:05:20;;;;;;;30.67;10.85;;;;;;;9.16;61.45;104638.47;5222899;28;20416;-48
2022/03/19 00:07:52;;;;;;;35.33;9.23;;;;;;;9.15;61.53;104641.16;5213187;28;20528;-49
2022/03/19 00:10:25;;;;;;;37.83;10.48;;;;;;;9.15;61.43;104639.38;5211381;27;20458;-48
2022/03/19 00:12:58;;;;;;;33.08;8.07;;;;;;;9.13;61.46;104635.91;5195690;27;20424;-48
2022/03/19 00:15:33;;;;;;;30.42;9.13;;;;;;;9.02;61.40;104622.22;5225220;28;20444;-48
2022/03/19 00:18:06;;;;;;;32.25;8.25;;;;;;;9.07;61.46;104629.97;5220194;27;20431;-55
2022/03/19 00:20:39;;;;;;;26.40;7.82;;;;;;;9.08;61.68;104635.22;5216213;27;20494;-49
2022/03/19 00:23:12;;;;;;;31.95;8.43;;;;;;;9.05;61.72;104637.09;5217061;28;20568;-48
2022/03/19 00:25:45;;;;;;;27.20;8.70;;;;;;;9.03;61.57;104636.25;5215583;27;20893;-49
2022/03/19 00:28:18;;;;;;;27.10;8.80;;;;;;;9.01;61.80;104623.09;5227153;27;20499;-50
2022/03/19 00:30:52;;;;;;;30.75;8.95;;;;;;;9.01;61.83;104623.09;5229721;27;20775;-60
2022/03/19 00:33:26;;;;;;;35.28;9.90;;;;;;;8.95;61.71;104621.56;5208483;27;20428;-52
2022/03/19 00:35:59;;;;;;;31.27;9.40;;;;;;;8.32;61.33;104527.63;5210219;27;20510;-52
2022/03/19 00:38:32;;;;;;;24.75;7.85;;;;;;;8.89;61.83;104631.41;5212872;27;20422;-51
2022/03/19 00:41:04;;;;;;;25.27;8.27;;;;;;;8.90;61.78;104647.19;5210145;27;20413;-52
2022/03/19 00:43:37;;;;;;;23.95;8.15;;;;;;;8.89;61.68;104644.59;5212170;27;20876;-49
2022/03/19 00:46:15;;;;;;;35.58;9.98;;;;;;;8.76;61.60;104644.97;5203411;27;20409;-52
2022/03/19 00:48:48;;;;;;;30.10;8.02;;;;;;;8.86;61.57;104649.97;5238682;27;20412;-53
2022/03/19 00:51:20;;;;;;;28.02;7.82;;;;;;;8.72;61.49;104627.47;5220570;27;21705;-51
2022/03/19 00:53:53;;;;;;;29.38;8.00;;;;;;;8.85;61.59;104645.56;5218547;27;20857;-56
2022/03/19 00:56:25;;;;;;;29.38;9.00;;;;;;;8.83;61.62;104647.41;5222743;27;20418;-53
2022/03/19 00:58:57;;;;;;;28.90;7.57;;;;;;;8.79;61.40;104641.34;5220644;28;20555;-51
2022/03/19 01:01:31;;;;;;;33.45;8.45;;;;;;;8.73;61.73;104642.41;5228342;27;20483;-51
2022/03/19 01:04:04;;;;;;;32.88;8.57;;;;;;;8.70;61.64;104639.88;5221186;27;20508;-48
2022/03/19 01:06:36;;;;;;;28.57;8.43;;;;;;;8.69;61.55;104634.63;5220390;27;20428;-61
2022/03/19 01:09:09;;;;;;;27.42;7.47;;;;;;;8.69;61.32;104638.13;5212697;27;20507;-53
2022/03/19 01:11:41;;;;;;;27.30;8.68;;;;;;;8.64;61.36;104640.03;5220252;28;20489;-48
2022/03/19 01:14:41;;;;;;;31.13;7.97;;;;;;;8.65;61.29;104630.34;5211285;28;20477;-52
2022/03/19 01:17:14;;;;;;;25.65;7.75;;;;;;;8.58;61.40;104629.66;5206232;28;20845;-49
2022/03/19 01:19:58;;;;;;;30.85;7.82;;;;;;;8.57;61.45;104622.66;5229330;27;20422;-49
2022/03/19 01:22:30;;;;;;;31.13;8.40;;;;;;;8.53;61.41;104621.88;5219604;28;20416;-53
2022/03/19 01:25:05;;;;;;;32.33;9.40;;;;;;;8.49;61.39;104600.94;5222395;27;20475;-51
2022/03/19 01:27:39;;;;;;;24.08;8.40;;;;;;;8.51;61.29;104620.19;5230692;27;20806;-50
2022/03/19 01:30:16;;;;;;;32.25;9.00;;;;;;;8.49;61.38;104624.66;5225044;27;20939;-48
2022/03/19 01:32:51;;;;;;;27.03;8.27;;;;;;;8.45;61.24;104623.84;5220747;27;20547;-48
2022/03/19 01:35:24;;;;;;;30.02;8.68;;;;;;;8.42;61.17;104617.81;5224992;28;20808;-50
2022/03/19 01:37:56;;;;;;;29.65;8.98;;;;;;;8.37;61.10;104617.94;5211727;27;20527;-47
2022/03/19 01:40:28;;;;;;;28.83;8.23;;;;;;;8.38;61.15;104622.31;5223302;27;20540;-50
2022/03/19 01:43:01;;;;;;;26.20;7.63;;;;;;;8.37;61.16;104617.94;5211705;27;20511;-48
2022/03/19 01:45:34;;;;;;;25.30;7.63;;;;;;;8.26;61.38;104615.56;5214163;27;20710;-49
2022/03/19 01:48:08;;;;;;;26.52;7.72;;;;;;;8.30;61.37;104604.06;5210040;27;20939;-52
2022/03/19 01:50:40;;;;;;;37.20;8.27;;;;;;;8.30;61.24;104603.22;5215152;27;20948;-56
2022/03/19 01:53:13;;;;;;;25.77;7.38;;;;;;;8.30;61.23;104598.81;5214783;27;20455;-49
2022/03/19 01:55:46;;;;;;;27.77;9.10;;;;;;;8.25;61.18;104589.31;5210726;28;20439;-47
2022/03/19 01:58:18;;;;;;;27.48;7.65;;;;;;;8.18;61.13;104588.59;5204278;27;20526;-48
2022/03/19 02:00:51;;;;;;;30.63;8.05;;;;;;;7.83;61.21;104531.63;5215552;27;20494;-52
2022/03/19 02:03:26;;;;;;;27.55;7.65;;;;;;;8.18;61.34;104600.91;5220113;27;20419;-55
2022/03/19 02:06:01;;;;;;;27.37;7.37;;;;;;;8.16;61.37;104594.81;5225336;27;20484;-48
2022/03/19 02:08:33;;;;;;;20.97;6.37;;;;;;;8.13;61.25;104595.75;5223420;27;20450;-50
2022/03/19 02:11:06;;;;;;;24.15;7.63;;;;;;;8.12;61.24;104594.03;5209072;27;20889;-50
2022/03/19 02:13:38;;;;;;;21.02;7.90;;;;;;;8.10;61.29;104595.84;5204485;27;20410;-54
2022/03/19 02:16:11;;;;;;;22.27;7.03;;;;;;;8.08;61.30;104582.72;5216135;28;20590;-50
2022/03/19 02:18:45;;;;;;;22.02;7.72;;;;;;;8.03;61.17;104573.22;5220525;28;20425;-52
2022/03/19 02:21:17;;;;;;;21.33;7.18;;;;;;;7.41;60.87;104470.50;5208568;27;20924;-50
2022/03/19 02:26:47;;;;;;;24.58;6.32;;;;;;;7.98;61.34;104585.63;5218530;27;20416;-52
2022/03/19 02:29:20;;;;;;;23.63;7.00;;;;;;;8.01;60.93;104580.28;5225491;27;20512;-59
2022/03/19 02:31:56;;;;;;;19.88;7.40;;;;;;;7.97;61.07;104574.25;5226274;27;21024;-47
2022/03/19 02:34:29;;;;;;;23.52;7.05;;;;;;;7.86;60.80;104561.34;5222154;27;20481;-49
2022/03/19 02:37:02;;;;;;;27.75;6.63;;;;;;;7.97;61.05;104574.25;5222340;28;20757;-50
2022/03/19 02:39:36;;;;;;;25.13;6.93;;;;;;;7.93;61.02;104577.00;5216866;27;20502;-52
2022/03/19 02:42:09;;;;;;;28.50;7.05;;;;;;;7.75;60.85;104547.63;5207030;27;20506;-56
2022/03/19 02:44:42;;;;;;;21.30;6.07;;;;;;;7.89;60.93;104570.09;5202229;27;20427;-50
2022/03/19 02:47:15;;;;;;;21.55;6.72;;;;;;;7.82;60.98;104557.09;5214428;27;20460;-54
2022/03/19 02:49:47;;;;;;;20.45;5.38;;;;;;;7.88;60.97;104568.38;5221596;27;20821;-49
2022/03/19 02:52:20;;;;;;;27.90;6.97;;;;;;;7.84;60.69;104563.19;5224466;28;20475;-48
2022/03/19 02:54:54;;;;;;;19.15;6.00;;;;;;;7.84;60.79;104562.31;5220354;27;20916;-56
2022/03/19 02:57:26;;;;;;;29.50;7.37;;;;;;;7.68;60.99;104529.41;5213200;27;20536;-53
2022/03/19 02:59:58;;;;;;;25.90;7.07;;;;;;;7.83;60.61;104556.22;5223262;28;20739;-52
2022/03/19 03:02:31;;;;;;;23.05;6.55;;;;;;;7.80;60.48;104551.03;5212539;28;20415;-49
2022/03/19 03:05:05;;;;;;;21.95;6.68;;;;;;;7.80;60.55;104556.28;5212895;27;20412;-51
2022/03/19 03:07:37;;;;;;;16.25;6.32;;;;;;;7.78;60.51;104551.97;5212152;27;20413;-49
2022/03/19 03:10:13;;;;;;;23.43;6.73;;;;;;;7.67;60.49;104533.81;5221801;27;20531;-50
2022/03/19 03:12:46;;;;;;;21.17;6.90;;;;;;;7.77;60.35;104550.22;5223774;28;20492;-49
2022/03/19 03:15:19;;;;;;;19.70;6.30;;;;;;;7.71;60.49;104546.00;5225388;27;20419;-48
2022/03/19 03:17:51;;;;;;;18.70;6.10;;;;;;;7.72;60.46;104547.72;5217999;27;20767;-49
2022/03/19 03:20:24;;;;;;;27.30;7.50;;;;;;;7.69;60.40;104546.94;5216002;28;20543;-54
2022/03/19 03:22:56;;;;;;;29.60;7.60;;;;;;;7.69;60.22;104558.31;5212395;28;20508;-56
2022/03/19 03:25:30;;;;;;;20.87;7.47;;;;;;;7.67;60.35;104541.69;5220626;27;20999;-50
2022/03/19 03:28:03;;;;;;;15.07;6.70;;;;;;;7.69;60.39;104558.31;5211779;28;20419;-52
2022/03/19 03:30:36;;;;;;;17.33;6.45;;;;;;;7.67;60.17;104551.38;5215265;28;20408;-60
2022/03/19 03:33:08;;;;;;;23.45;7.05;;;;;;;7.65;60.43;104551.44;5211147;28;20419;-50
2022/03/19 03:35:40;;;;;;;24.27;6.82;;;;;;;7.62;60.40;104557.63;5218670;28;20495;-51
2022/03/19 03:38:13;;;;;;;21.92;6.38;;;;;;;7.67;60.30;104554.00;5214321;27;20499;-56
2022/03/19 03:40:46;;;;;;;25.17;7.97;;;;;;;7.61;60.26;104541.88;5212623;27;20499;-53
2022/03/19 03:43:19;;;;;;;30.53;8.17;;;;;;;7.61;60.28;104549.75;5220820;28;21012;-53
2022/03/19 03:45:52;;;;;;;22.98;8.52;;;;;;;7.60;60.13;104550.66;5209215;28;20912;-49
2022/03/19 03:48:24;;;;;;;27.23;7.35;;;;;;;7.58;60.17;104550.69;5211415;27;20568;-51
2022/03/19 03:50:58;;;;;;;19.33;6.78;;;;;;;7.55;60.30;104550.75;5218973;27;20492;-52
2022/03/19 03:53:31;;;;;;;24.63;7.85;;;;;;;7.49;60.38;104550.06;5222787;27;20521;-55
2022/03/19 03:56:06;;;;;;;23.83;7.32;;;;;;;7.51;60.48;104551.75;5218631;27;20913;-53
2022/03/19 03:58:40;;;;;;;24.55;8.68;;;;;;;7.43;60.18;104534.44;5208368;27;20938;-50
2022/03/19 04:01:12;;;;;;;30.58;8.02;;;;;;;7.52;60.24;104552.63;5217041;28;20624;-55
2022/03/19 04:03:45;;;;;;;28.55;7.55;;;;;;;7.48;60.26;104543.94;5214428;27;20415;-49
2022/03/19 04:06:17;;;;;;;18.70;7.72;;;;;;;7.24;60.47;104503.34;5216226;27;20597;-47
2022/03/19 04:08:49;;;;;;;20.30;7.43;;;;;;;7.48;60.32;104545.72;5216004;27;20428;-49
2022/03/19 04:11:23;;;;;;;24.92;8.38;;;;;;;7.37;60.31;104531.06;5218122;28;20825;-50
2022/03/19 04:13:56;;;;;;;20.90;7.45;;;;;;;7.39;60.38;104534.50;5213854;27;20872;-49
2022/03/19 04:16:28;;;;;;;30.65;8.45;;;;;;;7.45;60.27;104543.16;5223565;27;20895;-48
2022/03/19 04:19:01;;;;;;;25.17;8.68;;;;;;;7.43;60.34;104553.72;5217401;28;20555;-51
2022/03/19 04:21:33;;;;;;;25.10;8.85;;;;;;;7.42;60.39;104543.25;5221166;27;20459;-52
2022/03/19 04:24:07;;;;;;;28.55;9.35;;;;;;;7.39;60.40;104539.78;5217590;27;20392;-53
2022/03/19 04:26:41;;;;;;;22.65;9.18;;;;;;;7.41;60.59;104546.78;5221943;28;20498;-49
2022/03/19 04:29:13;;;;;;;27.35;9.10;;;;;;;7.39;60.35;104546.81;5215314;27;20500;-50
2022/03/19 04:31:46;;;;;;;24.38;9.73;;;;;;;7.39;60.45;104555.56;5217300;28;20427;-53
2022/03/19 04:34:19;;;;;;;30.92;8.77;;;;;;;7.29;60.45;104546.16;5220576;27;20417;-53
2022/03/19 04:36:51;;;;;;;30.83;10.70;;;;;;;7.10;60.44;104506.31;5219871;27;20901;-51
2022/03/19 04:39:24;;;;;;;32.80;10.55;;;;;;;7.37;60.43;104543.34;5210129;27;21141;-47
2022/03/19 04:41:58;;;;;;;25.25;9.02;;;;;;;7.37;60.46;104546.84;5212731;28;20510;-51
2022/03/19 04:44:30;;;;;;;29.00;10.15;;;;;;;7.29;60.38;104526.91;5215137;27;20409;-47
2022/03/19 04:47:03;;;;;;;24.97;10.17;;;;;;;7.36;60.50;104560.88;5225509;28;20408;-52
2022/03/19 04:49:36;;;;;;;27.13;11.52;;;;;;;7.32;60.54;104527.69;5225721;27;20423;-52
2022/03/19 04:52:08;;;;;;;27.37;10.10;;;;;;;7.35;60.51;104530.25;5219582;27;20420;-52
2022/03/19 04:54:41;;;;;;;37.58;13.65;;;;;;;7.34;60.43;104532.88;5210376;27;20434;-52
2022/03/19 04:57:15;;;;;;;31.20;11.85;;;;;;;7.33;60.75;104528.53;5216484;28;20434;-50
2022/03/19 04:59:47;;;;;;;26.65;11.90;;;;;;;7.35;60.66;104532.88;5217951;27;20480;-55
2022/03/19 05:02:20;;;;;;;24.05;10.68;;;;;;;7.36;60.41;104531.97;5234688;27;20506;-52
2022/03/19 05:04:53;;;;;;;29.63;11.52;;;;;;;7.37;60.57;104535.44;5216425;28;20419;-53
2022/03/19 05:07:25;;;;;;;32.55;12.48;;;;;;;7.33;60.52;104534.66;5214963;27;20747;-58
2022/03/19 05:12:49;;;;;;;34.08;13.30;;;;;;;7.11;60.86;104504.56;5213361;27;20491;-53
2022/03/19 05:15:22;;;;;;;28.88;12.10;;;;;;;7.08;60.61;104502.00;5222961;27;21798;-49
2022/03/19 05:17:54;;;;;;;28.23;12.60;;;;;;;7.26;60.68;104522.56;5220435;27;20545;-51
2022/03/19 05:20:28;;;;;;;28.60;12.00;;;;;;;7.25;60.80;104531.38;5221866;28;20422;-51
2022/03/19 05:23:00;;;;;;;31.80;12.45;;;;;;;7.24;60.88;104531.41;5213039;28;20478;-49
2022/03/19 05:25:33;;;;;;;32.17;11.93;;;;;;;7.24;60.80;104536.66;5229155;27;20491;-51
2022/03/19 05:28:07;;;;;;;31.20;13.57;;;;;;;6.92;60.87;104481.34;5225077;28;20881;-52
2022/03/19 05:30:39;;;;;;;36.70;13.80;;;;;;;7.19;60.95;104526.28;5194989;28;20968;-53
2022/03/19 05:33:13;;;;;;;32.47;12.48;;;;;;;7.19;61.17;104525.41;5198318;28;20480;-50
2022/03/19 05:35:48;;;;;;;27.00;11.88;;;;;;;7.19;60.88;104531.53;5200042;28;20509;-50
2022/03/19 05:38:20;;;;;;;30.52;11.95;;;;;;;7.17;60.90;104528.06;5194178;28;20502;-53
2022/03/19 05:40:53;;;;;;;25.42;12.15;;;;;;;7.14;60.94;104533.38;5196968;28;20421;-54
2022/03/19 05:43:27;;;;;;;41.67;13.17;;;;;;;7.11;61.33;104522.94;5205821;28;20844;-48
2022/03/19 05:45:59;;;;;;;39.83;14.07;;;;;;;7.13;60.92;104542.19;5200704;28;20512;-51
2022/03/19 05:48:31;;;;;;;30.97;13.03;;;;;;;7.13;61.15;104536.94;5201121;28;20409;-53
2022/03/19 05:51:05;;;;;;;33.90;12.20;;;;;;;7.15;61.20;104536.00;5206378;28;20421;-48
2022/03/19 05:53:41;;;;;;;30.67;12.60;;;;;;;7.15;61.08;104524.59;5207288;28;20417;-49
2022/03/19 05:56:13;;;;;;;37.15;13.00;;;;;;;6.47;61.19;104420.22;5209828;28;20406;-54
2022/03/19 05:58:47;;;;;;;29.30;12.95;;;;;;;7.10;61.32;104535.22;5197146;28;20424;-51
2022/03/19 06:01:25;;;;;;;26.77;12.75;;;;;;;7.15;61.21;104535.09;5195135;28;20424;-51
2022/03/19 06:04:00;;;;;;;31.90;13.40;;;;;;;7.15;61.24;104536.00;5203632;28;22874;-54
2022/03/19 06:06:32;;;;;;;32.53;12.55;;;;;;;7.15;61.37;104545.63;5200976;28;20828;-52
2022/03/19 06:09:05;;;;;;;29.17;13.15;;;;;;;7.08;61.51;104523.03;5196621;28;20426;-52
2022/03/19 06:11:38;;;;;;;33.75;13.65;;;;;;;6.91;61.43;104500.63;5193713;28;20440;-51
2022/03/19 06:14:12;;;;;;;28.73;11.90;;;;;;;7.20;61.66;104533.25;5188793;28;20422;-57
2022/03/19 06:16:45;;;;;;;29.95;12.18;;;;;;;7.21;61.55;104532.34;5199930;28;20485;-51
2022/03/19 06:19:18;;;;;;;30.53;12.70;;;;;;;7.28;61.52;104533.06;5207364;28;20870;-51
2022/03/19 06:21:50;;;;;;;28.27;12.00;;;;;;;7.28;61.15;104520.78;5193989;28;20441;-55
2022/03/19 06:24:23;;;;;;;30.73;12.17;;;;;;;7.37;61.32;104531.06;5198562;28;20475;-52
2022/03/19 06:26:56;;;;;;;25.10;11.57;;;;;;;7.38;61.58;104538.06;5192920;28;20848;-51
2022/03/19 06:29:29;;;;;;;26.25;11.32;;;;;;;7.42;61.24;104543.25;5202204;28;20496;-48
2022/03/19 06:32:02;;;;;;;31.42;11.90;;;;;;;7.45;61.40;104548.44;5204560;28;20459;-59
2022/03/19 06:34:34;;;;;;;28.88;9.80;;;;;;;7.49;61.51;104550.06;5189377;28;20454;-49
2022/03/19 06:37:21;;;;;;;26.05;10.02;;;;;;;7.47;61.22;104541.38;5193735;28;20520;-48
2022/03/19 06:39:57;;;;;;;26.13;9.80;;;;;;;7.38;61.68;104538.06;5188606;28;20585;-48
2022/03/19 06:42:30;;;;;;;26.15;9.52;;;;;;;7.38;61.77;104517.00;5192040;28;20409;-54
2022/03/19 06:45:04;;;;;;;28.43;10.03;;;;;;;7.57;61.42;104548.13;5204837;28;20596;-49
2022/03/19 06:47:36;;;;;;;24.23;9.55;;;;;;;7.62;61.68;104554.13;5195679;28;20972;-47
2022/03/19 06:50:10;;;;;;;23.02;8.70;;;;;;;7.64;61.38;104554.94;5193353;28;20428;-51
2022/03/19 06:52:43;;;;;;;17.80;7.88;;;;;;;7.69;61.66;104547.81;5194194;28;20431;-53
2022/03/19 06:55:16;;;;;;;23.00;8.82;;;;;;;7.80;61.60;104552.75;5202551;28;20997;-48
2022/03/19 06:57:48;;;;;;;23.90;8.38;;;;;;;7.83;61.66;104555.31;5196353;28;20488;-49
2022/03/19 07:00:22;;;;;;;22.50;8.23;;;;;;;7.94;61.38;104562.94;5203520;28;20503;-50
2022/03/19 07:02:56;;;;;;;16.90;8.25;;;;;;;7.91;61.57;104553.34;5195008;28;20600;-50
2022/03/19 07:05:31;;;;;;;25.00;7.25;;;;;;;8.10;61.24;104553.72;5207434;28;20762;-50
2022/03/19 07:08:07;;;;;;;21.10;6.93;;;;;;;8.99;60.73;104556.41;5204889;28;20401;-49
2022/03/19 07:10:40;;;;;;;21.48;7.28;;;;;;;10.25;59.61;104549.44;5204792;28;20413;-49
2022/03/19 07:13:12;;;;;;;18.83;6.50;;;;;;;11.43;58.53;104543.03;5170593;28;20828;-48
2022/03/19 07:15:46;;;;;;;13.95;5.60;;;;;;;12.75;57.17;104554.84;5202308;27;20433;-48
2022/03/19 07:18:19;;;;;;;19.42;6.47;;;;;;;13.50;56.44;104543.19;5195553;27;20449;-52
2022/03/19 07:20:51;;;;;;;15.95;5.15;;;;;;;14.35;55.21;104526.31;5200018;28;20429;-46
2022/03/19 07:23:24;;;;;;;14.55;4.47;;;;;;;15.12;54.25;104533.50;5207008;28;20496;-49
2022/03/19 07:25:59;;;;;;;15.35;5.75;;;;;;;15.61;53.21;104536.75;5201540;28;20431;-50
2022/03/19 07:28:32;;;;;;;11.50;4.63;;;;;;;16.06;52.26;104532.25;5200492;28;20426;-53
2022/03/19 07:31:06;;;;;;;14.98;4.53;;;;;;;16.09;51.73;104532.06;5203749;28;20505;-48
2022/03/19 07:33:38;;;;;;;14.98;4.80;;;;;;;16.18;51.01;104535.97;5208298;28;20446;-51
2022/03/19 07:36:11;;;;;;;13.40;4.72;;;;;;;16.21;50.81;104537.56;5204100;28;20410;-51
2022/03/19 07:38:43;;;;;;;13.90;4.50;;;;;;;16.53;50.07;104535.50;5198657;28;20415;-48
2022/03/19 07:44:06;;;;;;;13.18;4.32;;;;;;;17.50;48.06;104533.50;5198402;28;20911;-52
2022/03/19 07:46:42;;;;;;;10.77;4.13;;;;;;;17.67;47.25;104539.50;5202385;28;20971;-49
2022/03/19 07:49:14;;;;;;;11.57;4.55;;;;;;;17.21;47.30;104526.59;5200185;28;20413;-51
2022/03/19 07:51:51;;;;;;;12.47;4.27;;;;;;;17.19;47.10;104533.88;5198665;28;20607;-51
2022/03/19 07:54:27;;;;;;;13.80;4.20;;;;;;;17.17;46.72;104517.09;5202249;28;20429;-50
2022/03/19 07:57:00;;;;;;;13.82;4.47;;;;;;;17.31;46.20;104533.03;5187248;28;20407;-51
2022/03/19 07:59:32;;;;;;;14.80;4.72;;;;;;;17.10;45.69;104531.84;5187248;28;20903;-49
2022/03/19 08:02:07;;;;;;;12.73;4.88;;;;;;;17.12;45.66;104532.56;5191361;28;20871;-57
2022/03/19 08:04:39;;;;;;;13.95;4.07;;;;;;;17.17;45.23;104530.47;5191612;28;20749;-50
2022/03/19 08:07:12;;;;;;;15.07;4.88;;;;;;;17.04;44.87;104525.09;5201312;28;20460;-53
2022/03/19 08:09:44;;;;;;;16.33;5.53;;;;;;;17.17;44.51;104535.78;5204806;28;20604;-50
2022/03/19 08:12:17;;;;;;;14.38;4.10;;;;;;;17.19;44.08;104523.22;5206867;28;20430;-51
2022/03/19 08:14:51;;;;;;;14.52;4.55;;;;;;;17.73;43.44;104526.56;5196860;28;20520;-53
2022/03/19 08:17:25;;;;;;;11.18;4.07;;;;;;;18.07;43.10;104536.72;5191082;28;20508;-54
2022/03/19 08:19:59;;;;;;;14.35;4.38;;;;;;;18.11;42.71;104527.50;5193349;28;20446;-50
2022/03/19 08:22:32;;;;;;;14.93;4.80;;;;;;;18.34;42.26;104532.06;5194256;28;20899;-51
2022/03/19 08:25:05;;;;;;;13.17;3.97;;;;;;;18.49;41.87;104527.44;5202629;28;20592;-50
2022/03/19 08:27:38;;;;;;;14.57;5.07;;;;;;;18.30;41.99;104530.59;5203393;28;20421;-51
2022/03/19 08:30:11;;;;;;;13.90;4.72;;;;;;;18.28;42.12;104529.84;5204578;28;20846;-52
2022/03/19 08:32:45;;;;;;;16.15;4.72;;;;;;;18.47;41.42;104528.50;5195489;28;20418;-54
2022/03/19 08:35:18;;;;;;;12.90;4.95;;;;;;;18.78;41.09;104554.75;5196796;28;21726;-54
2022/03/19 08:40:15;;;;;;;16.08;5.20;;;;;;;18.37;41.12;104534.53;5199151;28;20455;-51
2022/03/19 08:40:45;;;;;;;12.70;5.15;;;;;;;18.17;41.34;104535.09;5179695;28;20414;-50
2022/03/19 08:43:18;;;;;;;14.32;4.90;;;;;;;17.95;41.46;104533.94;5202119;28;20411;-54
2022/03/19 08:45:53;;;;;;;12.73;5.32;;;;;;;17.88;41.51;104522.00;5210459;28;20421;-52
2022/03/19 08:48:27;;;;;;;18.45;5.70;;;;;;;18.18;41.41;104535.00;5205403;28;20444;-52
2022/03/19 08:51:39;;;;;;;14.90;4.80;;;;;;;18.30;41.22;104521.69;5198697;28;20720;-48
2022/03/19 08:53:52;;;;;;;13.30;4.70;;;;;;;17.51;41.78;104526.34;5198893;28;20498;-48
2022/03/19 08:56:25;;;;;;;17.65;5.32;;;;;;;17.01;42.46;104515.47;5188838;28;20441;-48
2022/03/19 08:58:57;;;;;;;19.85;5.53;;;;;;;16.56;42.92;104520.16;5211076;28;20504;-53
2022/03/19 09:01:30;;;;;;;15.52;5.38;;;;;;;16.14;43.42;104524.63;5201147;28;20457;-53
2022/03/19 09:04:05;;;;;;;19.77;5.13;;;;;;;15.84;43.71;104515.88;5195717;28;20569;-53
2022/03/19 09:06:38;;;;;;;15.25;4.53;;;;;;;15.58;43.96;104526.28;5207276;28;20417;-52
2022/03/19 09:09:13;;;;;;;19.55;4.70;;;;;;;15.35;44.04;104513.47;5205566;28;20409;-54
2022/03/19 09:11:46;;;;;;;16.00;5.53;;;;;;;15.28;44.26;104514.81;5201929;28;20418;-52
2022/03/19 09:14:20;;;;;;;14.18;4.43;;;;;;;15.06;44.44;104507.22;5205218;28;20418;-51
2022/03/19 09:16:52;;;;;;;13.45;5.28;;;;;;;15.07;44.52;104515.09;5198224;27;20415;-49
2022/03/19 09:19:27;;;;;;;14.98;5.03;;;;;;;14.98;44.72;104515.66;5190716;28;20498;-51
2022/03/19 09:22:00;;;;;;;13.13;4.47;;;;;;;14.95;44.95;104510.50;5195184;28;20408;-50
2022/03/19 09:24:32;;;;;;;12.75;4.53;;;;;;;14.75;44.98;104504.53;5187830;28;20415;-51
2022/03/19 09:27:05;;;;;;;14.35;5.03;;;;;;;14.60;45.30;104513.38;5191016;28;20446;-50
2022/03/19 09:29:38;;;;;;;11.13;4.55;;;;;;;14.40;45.49;104492.31;5202596;28;20735;-49
2022/03/19 09:32:12;;;;;;;19.85;5.10;;;;;;;13.93;45.57;104450.59;5225944;28;20418;-56
2022/03/19 09:34:49;;;;;;;12.75;4.70;;;;;;;14.00;45.83;104492.72;5228022;28;20427;-51
2022/03/19 09:37:21;;;;;;;11.25;4.22;;;;;;;13.67;46.07;104498.03;5206000;28;20430;-52
2022/03/19 09:39:53;;;;;;;10.30;4.07;;;;;;;13.40;46.05;104495.00;5203060;28;20437;-51
2022/03/19 09:42:28;;;;;;;11.15;4.55;;;;;;;13.23;46.32;104519.75;5207752;27;20499;-49
2022/03/19 09:45:01;;;;;;;15.10;3.90;;;;;;;12.91;46.29;104449.69;5204002;28;20429;-53
2022/03/19 09:47:33;;;;;;;17.02;4.47;;;;;;;12.94;46.34;104478.72;5203720;28;20469;-48
2022/03/19 09:50:09;;;;;;;11.18;3.80;;;;;;;13.03;46.26;104475.59;5193389;27;20919;-49
2022/03/19 09:52:43;;;;;;;16.60;4.80;;;;;;;12.79;46.26;104460.91;5202832;28;20946;-51
2022/03/19 09:55:18;;;;;;;13.77;4.38;;;;;;;12.77;46.21;104474.25;5205030;27;20577;-51
2022/03/19 09:57:50;;;;;;;12.77;3.78;;;;;;;12.67;46.22;104457.94;5202868;28;20850;-51
2022/03/19 10:00:24;;;;;;;16.38;4.53;;;;;;;12.80;46.00;104473.25;5201018;28;20450;-47
2022/03/19 10:02:59;;;;;;;13.73;4.45;;;;;;;12.76;46.04;104467.25;5217232;28;20471;-55
2022/03/19 10:08:39;;;;;;;8.80;3.78;;;;;;;12.70;45.37;104456.94;5202636;28;20408;-51
2022/03/19 10:11:14;;;;;;;11.48;3.83;;;;;;;12.82;45.17;104456.34;5197904;28;20421;-49
2022/03/19 10:13:49;;;;;;;11.30;4.25;;;;;;;12.91;44.93;104450.56;5201969;28;20824;-52
2022/03/19 10:16:24;;;;;;;11.37;3.53;;;;;;;13.03;44.55;104448.22;5195159;28;20514;-52
2022/03/19 10:18:59;;;;;;;14.57;3.85;;;;;;;13.15;44.39;104435.19;5203575;28;20421;-52
2022/03/19 10:21:41;;;;;;;11.98;4.30;;;;;;;13.00;44.08;104390.00;5190254;28;20743;-51
2022/03/19 10:24:27;;;;;;;10.40;3.83;;;;;;;13.27;43.92;104431.06;5187945;28;20472;-54
2022/03/19 10:26:59;;;;;;;10.23;3.05;;;;;;;13.22;43.65;104411.81;5194647;28;20759;-51
2022/03/19 10:29:35;;;;;;;10.93;4.30;;;;;;;13.13;43.56;104385.75;5208949;28;20482;-51
2022/03/19 10:32:08;;;;;;;11.10;3.53;;;;;;;13.33;43.22;104406.84;5231178;28;20418;-49
2022/03/19 10:34:41;;;;;;;11.30;3.10;;;;;;;13.29;42.95;104402.66;5227831;28;20426;-50
2022/03/19 10:37:39;;;;;;;7.45;3.17;;;;;;;13.22;42.68;104401.22;5205630;28;20411;-48
2022/03/19 10:40:12;;;;;;;11.13;3.88;;;;;;;13.20;42.76;104403.09;5186600;28;20407;-47
2022/03/19 10:42:44;;;;;;;11.27;3.85;;;;;;;13.22;42.40;104390.59;5200780;28;20436;-49
2022/03/19 10:45:23;;;;;;;11.20;4.40;;;;;;;13.03;42.53;104369.47;5188412;28;20883;-51
2022/03/19 10:47:56;;;;;;;13.50;4.13;;;;;;;13.21;42.50;104390.69;5199053;28;20495;-49
2022/03/19 10:50:28;;;;;;;13.17;4.93;;;;;;;13.36;42.23;104387.25;5207214;28;20488;-53
2022/03/19 10:53:03;;;;;;;11.55;3.92;;;;;;;13.11;42.15;104319.50;5205024;28;20520;-53
2022/03/19 10:55:35;;;;;;;7.88;3.70;;;;;;;13.51;41.98;104374.97;5202156;28;20484;-50
2022/03/19 10:58:08;;;;;;;13.85;4.43;;;;;;;13.55;41.90;104365.88;5197221;28;20625;-49
2022/03/19 11:00:41;;;;;;;13.57;5.00;;;;;;;13.54;41.80;104359.72;5189419;28;20496;-54
2022/03/19 11:03:18;;;;;;;16.58;4.30;;;;;;;13.62;41.58;104385.84;5194846;28;20814;-50
2022/03/19 11:05:57;;;;;;;14.97;4.67;;;;;;;13.55;41.51;104376.50;5203237;28;20781;-50
2022/03/19 11:08:37;;;;;;;9.02;3.55;;;;;;;13.56;41.34;104356.97;5190561;28;20461;-51
2022/03/19 11:11:15;;;;;;;13.88;3.90;;;;;;;13.60;41.34;104363.84;5192734;28;20426;-48
2022/03/19 11:13:50;;;;;;;11.40;4.00;;;;;;;13.67;41.23;104365.22;5195958;28;20888;-50
2022/03/19 11:16:23;;;;;;;11.77;4.53;;;;;;;13.69;41.16;104351.84;5199637;28;20976;-53
2022/03/19 11:18:57;;;;;;;9.15;3.25;;;;;;;13.75;41.08;104351.50;5207447;28;20416;-54
2022/03/19 11:21:32;;;;;;;6.38;2.75;;;;;;;13.77;40.75;104345.16;5199397;28;20421;-50
2022/03/19 11:24:13;;;;;;;12.23;3.45;;;;;;;13.81;40.64;104343.19;5205203;28;20826;-51
2022/03/19 11:26:47;;;;;;;10.57;3.42;;;;;;;13.82;40.46;104339.63;5194817;28;20463;-52
2022/03/19 11:29:20;;;;;;;10.50;3.45;;;;;;;13.76;40.55;104343.47;5192748;28;20902;-53
2022/03/19 11:31:59;;;;;;;11.07;3.13;;;;;;;13.71;40.52;104329.56;5197298;28;20410;-52
2022/03/19 11:34:45;;;;;;;7.60;3.70;;;;;;;13.65;40.37;104340.53;5206048;28;20405;-51
2022/03/19 11:37:18;;;;;;;10.63;3.38;;;;;;;13.54;40.37;104334.97;5193692;28;20764;-54
2022/03/19 11:40:29;;;;;;;11.10;3.40;;;;;;;13.58;40.30;104326.72;5202730;28;20433;-54
2022/03/19 11:43:02;;;;;;;10.15;3.35;;;;;;;13.71;40.11;104334.88;5204481;28;20437;-54
2022/03/19 11:45:53;;;;;;;9.50;3.22;;;;;;;13.77;39.65;104323.06;5196906;28;20415;-53
2022/03/19 11:48:46;;;;;;;10.55;3.00;;;;;;;13.74;40.13;104317.91;5206429;28;20459;-50
2022/03/19 11:51:31;;;;;;;12.68;3.22;;;;;;;13.64;40.02;104311.41;5203144;28;20493;-54
2022/03/19 11:54:09;;;;;;;9.88;3.40;;;;;;;13.60;40.42;104306.28;5199061;28;20400;-52
2022/03/19 11:57:09;;;;;;;12.07;3.70;;;;;;;13.54;40.05;104295.13;5209619;28;20393;-54
2022/03/19 11:59:48;;;;;;;12.15;3.75;;;;;;;13.55;39.87;104292.38;5194656;28;20444;-51
2022/03/19 12:02:21;;;;;;;12.18;3.90;;;;;;;13.70;39.89;104290.66;5201091;28;20425;-48
2022/03/19 12:04:55;;;;;;;9.35;3.50;;;;;;;13.79;39.60;104284.84;5202834;28;20788;-47